createdAt,value
2018-03-17T00:00:42.894Z,11.30
2018-03-17T00:01:42.906Z,11.40
2018-03-17T00:02:42.920Z,11.80
2018-03-17T00:03:42.932Z,12.20
2018-03-17T00:04:42.944Z,14.70
2018-03-17T00:05:42.958Z,13.20
2018-03-17T00:06:42.972Z,12.60
2018-03-17T00:07:42.985Z,12.60
2018-03-17T00:08:42.995Z,14.50
2018-03-17T00:09:43.009Z,12.50
2018-03-17T00:10:43.023Z,14.10
2018-03-17T00:11:43.035Z,12.70
2018-03-17T00:12:43.047Z,13.50
2018-03-17T00:13:43.059Z,13.30
2018-03-17T00:14:43.072Z,11.80
2018-03-17T00:15:43.086Z,12.10
2018-03-17T00:16:43.098Z,13.30
2018-03-17T00:17:43.110Z,13.30
2018-03-17T00:18:43.124Z,13.90
2018-03-17T00:19:43.137Z,12.30
2018-03-17T00:20:43.149Z,12.90
2018-03-17T00:21:43.161Z,11.50
2018-03-17T00:22:43.174Z,13.10
2018-03-17T00:23:43.188Z,14.30
2018-03-17T00:24:43.227Z,12.80
2018-03-17T00:25:43.214Z,12.10
2018-03-17T00:26:43.227Z,11.90
2018-03-17T00:27:43.239Z,13.40
2018-03-17T00:28:43.251Z,16.10
2018-03-17T00:29:43.263Z,12.20
2018-03-17T00:30:43.277Z,12.20
2018-03-17T00:31:43.290Z,9.70
2018-03-17T00:32:43.302Z,11.40
2018-03-17T00:33:43.315Z,11.40
2018-03-17T00:34:43.327Z,16.00
2018-03-17T00:35:43.341Z,14.20
2018-03-17T00:36:43.352Z,11.20
2018-03-17T00:37:43.365Z,10.30
2018-03-17T00:38:43.378Z,11.00
2018-03-17T00:39:43.390Z,11.50
2018-03-17T00:40:43.402Z,11.40
2018-03-17T00:41:43.416Z,11.60
2018-03-17T00:42:43.428Z,10.80
2018-03-17T00:43:43.442Z,10.00
2018-03-17T00:44:43.456Z,10.70
2018-03-17T00:45:43.467Z,10.30
2018-03-17T00:46:43.478Z,11.30
2018-03-17T00:47:43.491Z,10.10
2018-03-17T00:48:43.506Z,9.80
2018-03-17T00:49:43.517Z,9.80
2018-03-17T00:50:43.528Z,10.50
2018-03-17T00:51:43.542Z,10.70
2018-03-17T00:52:43.556Z,10.90
2018-03-17T00:53:43.567Z,10.70
2018-03-17T00:54:43.580Z,11.00
2018-03-17T00:55:43.593Z,9.60
2018-03-17T00:56:43.605Z,10.70
2018-03-17T00:57:43.617Z,10.80
2018-03-17T00:58:43.632Z,9.70
2018-03-17T00:59:43.643Z,8.80
2018-03-17T01:00:43.654Z,8.40
2018-03-17T01:01:43.668Z,8.40
2018-03-17T01:02:43.682Z,9.30
2018-03-17T01:03:43.693Z,8.00
2018-03-17T01:04:43.704Z,8.10
2018-03-17T01:05:43.719Z,7.90
2018-03-17T01:06:43.731Z,8.30
2018-03-17T01:07:44.044Z,7.50
2018-03-17T01:08:43.755Z,8.20
2018-03-17T01:09:43.768Z,8.70
2018-03-17T01:10:43.780Z,7.50
2018-03-17T01:11:43.794Z,8.40
2018-03-17T01:12:43.805Z,8.10
2018-03-17T01:13:43.819Z,7.00
2018-03-17T01:14:43.829Z,7.50
2018-03-17T01:15:43.844Z,7.40
2018-03-17T01:16:43.855Z,7.30
2018-03-17T01:17:43.869Z,7.40
2018-03-17T01:18:43.881Z,9.20
2018-03-17T01:19:43.893Z,15.20
2018-03-17T01:20:43.905Z,7.10
2018-03-17T01:21:43.918Z,7.00
2018-03-17T01:22:43.930Z,7.60
2018-03-17T01:23:44.043Z,7.10
2018-03-17T01:24:43.956Z,6.80
2018-03-17T01:25:43.968Z,6.70
2018-03-17T01:26:43.980Z,6.10
2018-03-17T01:27:44.028Z,7.20
2018-03-17T01:28:44.003Z,6.80
2018-03-17T01:29:44.017Z,7.70
2018-03-17T01:30:44.030Z,8.10
2018-03-17T01:31:44.042Z,6.60
2018-03-17T01:32:44.055Z,6.80
2018-03-17T01:33:44.067Z,6.40
2018-03-17T01:34:44.079Z,6.90
2018-03-17T01:35:44.092Z,7.00
2018-03-17T01:36:44.104Z,6.10
2018-03-17T01:37:44.116Z,6.90
2018-03-17T01:38:44.128Z,7.50
2018-03-17T01:39:44.145Z,6.30
2018-03-17T01:40:44.152Z,8.30
2018-03-17T01:41:44.165Z,7.30
2018-03-17T01:42:44.178Z,7.50
2018-03-17T01:43:44.191Z,7.10
2018-03-17T01:44:44.205Z,6.70
2018-03-17T01:45:44.215Z,6.60
2018-03-17T01:46:44.234Z,6.80
2018-03-17T01:47:44.240Z,7.60
2018-03-17T01:48:44.251Z,7.10
2018-03-17T01:49:44.264Z,7.10
2018-03-17T01:50:44.278Z,6.90
2018-03-17T01:51:44.290Z,6.80
2018-03-17T01:52:44.300Z,7.90
2018-03-17T01:53:44.313Z,6.60
2018-03-17T01:54:44.325Z,7.00
2018-03-17T01:55:44.338Z,10.10
2018-03-17T01:56:44.350Z,6.60
2018-03-17T01:57:44.361Z,6.90
2018-03-17T01:58:44.374Z,7.40
2018-03-17T01:59:44.387Z,7.20
2018-03-17T02:00:44.398Z,7.00
2018-03-17T02:01:44.411Z,6.90
2018-03-17T02:02:44.425Z,7.20
2018-03-17T02:03:44.437Z,6.80
2018-03-17T02:04:44.453Z,6.70
2018-03-17T02:05:44.460Z,6.80
2018-03-17T02:06:44.474Z,6.80
2018-03-17T02:07:45.235Z,6.60
2018-03-17T02:08:44.496Z,6.20
2018-03-17T02:09:44.508Z,7.10
2018-03-17T02:10:44.521Z,6.00
2018-03-17T02:11:44.533Z,6.50
2018-03-17T02:12:44.545Z,6.30
2018-03-17T02:13:44.558Z,6.80
2018-03-17T02:14:44.570Z,7.10
2018-03-17T02:15:44.585Z,6.80
2018-03-17T02:16:44.594Z,7.00
2018-03-17T02:17:44.606Z,7.00
2018-03-17T02:18:44.619Z,7.40
2018-03-17T02:19:44.631Z,7.10
2018-03-17T02:20:44.642Z,6.50
2018-03-17T02:21:44.655Z,6.30
2018-03-17T02:22:44.668Z,6.80
2018-03-17T02:23:44.680Z,7.10
2018-03-17T02:24:44.691Z,6.50
2018-03-17T02:25:44.704Z,6.70
2018-03-17T02:26:44.715Z,6.50
2018-03-17T02:27:44.730Z,7.10
2018-03-17T02:28:44.741Z,7.90
2018-03-17T02:29:44.752Z,7.10
2018-03-17T02:30:44.765Z,6.60
2018-03-17T02:31:44.785Z,6.00
2018-03-17T02:32:44.789Z,7.10
2018-03-17T02:33:44.801Z,6.70
2018-03-17T02:34:44.814Z,6.80
2018-03-17T02:35:44.825Z,6.40
2018-03-17T02:36:44.836Z,7.70
2018-03-17T02:37:44.849Z,7.10
2018-03-17T02:38:44.863Z,7.20
2018-03-17T02:39:44.874Z,7.40
2018-03-17T02:40:44.885Z,7.20
2018-03-17T02:41:44.900Z,6.40
2018-03-17T02:42:44.911Z,7.60
2018-03-17T02:43:44.924Z,7.80
2018-03-17T02:44:44.933Z,7.40
2018-03-17T02:45:44.946Z,7.10
2018-03-17T02:46:44.957Z,7.00
2018-03-17T02:47:44.970Z,6.90
2018-03-17T02:48:44.982Z,7.20
2018-03-17T02:49:44.999Z,6.90
2018-03-17T02:50:45.007Z,6.80
2018-03-17T02:51:45.018Z,6.40
2018-03-17T02:52:45.032Z,6.40
2018-03-17T02:53:45.042Z,7.70
2018-03-17T02:54:45.054Z,6.70
2018-03-17T02:55:45.067Z,6.70
2018-03-17T02:56:45.079Z,6.30
2018-03-17T02:57:45.090Z,6.70
2018-03-17T02:58:45.103Z,7.10
2018-03-17T02:59:45.117Z,6.40
2018-03-17T03:00:45.126Z,6.80
2018-03-17T03:01:45.138Z,6.90
2018-03-17T03:02:45.150Z,6.20
2018-03-17T03:03:45.213Z,7.20
2018-03-17T03:04:45.173Z,6.70
2018-03-17T03:05:45.186Z,7.40
2018-03-17T03:06:45.198Z,7.50
2018-03-17T03:07:45.212Z,7.40
2018-03-17T03:08:45.222Z,7.70
2018-03-17T03:09:45.234Z,7.10
2018-03-17T03:10:45.246Z,7.80
2018-03-17T03:11:45.258Z,7.00
2018-03-17T03:12:45.270Z,7.40
2018-03-17T03:13:45.282Z,6.90
2018-03-17T03:14:45.296Z,7.30
2018-03-17T03:15:45.306Z,7.10
2018-03-17T03:16:45.318Z,7.20
2018-03-17T03:17:45.329Z,6.90
2018-03-17T03:18:45.342Z,7.30
2018-03-17T03:19:45.355Z,7.70
2018-03-17T03:20:45.366Z,7.00
2018-03-17T03:21:45.378Z,7.80
2018-03-17T03:22:45.390Z,7.00
2018-03-17T03:23:45.402Z,7.10
2018-03-17T03:24:45.414Z,7.90
2018-03-17T03:25:45.425Z,7.20
2018-03-17T03:26:45.438Z,7.60
2018-03-17T03:27:45.452Z,8.10
2018-03-17T03:28:45.461Z,7.90
2018-03-17T03:29:45.474Z,7.10
2018-03-17T03:30:45.485Z,7.20
2018-03-17T03:31:45.498Z,7.00
2018-03-17T03:32:45.509Z,6.80
2018-03-17T03:33:45.521Z,7.40
2018-03-17T03:34:45.536Z,7.60
2018-03-17T03:35:45.545Z,8.80
2018-03-17T03:36:45.557Z,7.20
2018-03-17T03:37:45.569Z,6.80
2018-03-17T03:38:45.632Z,7.80
2018-03-17T03:39:45.593Z,7.30
2018-03-17T03:40:45.605Z,8.00
2018-03-17T03:41:45.616Z,7.40
2018-03-17T03:42:45.628Z,7.10
2018-03-17T03:43:45.640Z,7.30
2018-03-17T03:44:45.652Z,7.80
2018-03-17T03:45:45.666Z,7.30
2018-03-17T03:46:45.676Z,6.90
2018-03-17T03:47:45.687Z,7.80
2018-03-17T03:48:45.699Z,7.00
2018-03-17T03:49:45.712Z,7.80
2018-03-17T03:50:45.724Z,6.70
2018-03-17T03:51:45.734Z,8.00
2018-03-17T03:52:45.746Z,7.80
2018-03-17T03:53:45.757Z,7.10
2018-03-17T03:54:45.770Z,7.60
2018-03-17T03:55:45.782Z,7.70
2018-03-17T03:56:45.793Z,8.00
2018-03-17T03:57:45.806Z,7.80
2018-03-17T03:58:45.817Z,6.90
2018-03-17T03:59:45.831Z,7.10
2018-03-17T04:00:45.845Z,6.70
2018-03-17T04:01:45.851Z,8.30
2018-03-17T04:02:45.865Z,7.00
2018-03-17T04:03:45.881Z,7.80
2018-03-17T04:04:45.888Z,7.70
2018-03-17T04:05:45.905Z,8.10
2018-03-17T04:06:45.913Z,7.70
2018-03-17T04:07:45.924Z,6.80
2018-03-17T04:08:45.935Z,8.00
2018-03-17T04:09:45.949Z,7.30
2018-03-17T04:10:45.960Z,7.20
2018-03-17T04:11:45.972Z,7.50
2018-03-17T04:12:45.981Z,8.10
2018-03-17T04:13:45.995Z,7.90
2018-03-17T04:14:46.006Z,7.80
2018-03-17T04:15:46.018Z,8.30
2018-03-17T04:16:46.030Z,8.20
2018-03-17T04:17:46.041Z,7.40
2018-03-17T04:18:46.054Z,7.70
2018-03-17T04:19:46.066Z,7.70
2018-03-17T04:20:46.089Z,8.20
2018-03-17T04:21:46.089Z,7.60
2018-03-17T04:22:46.101Z,8.10
2018-03-17T04:23:46.113Z,7.50
2018-03-17T04:24:46.162Z,7.30
2018-03-17T04:25:46.135Z,7.20
2018-03-17T04:26:46.147Z,7.60
2018-03-17T04:27:46.159Z,7.50
2018-03-17T04:28:46.170Z,8.20
2018-03-17T04:29:46.182Z,7.60
2018-03-17T04:30:46.194Z,6.80
2018-03-17T04:31:46.207Z,7.30
2018-03-17T04:32:46.218Z,7.40
2018-03-17T04:33:46.230Z,7.80
2018-03-17T04:34:46.241Z,7.80
2018-03-17T04:35:46.253Z,7.60
2018-03-17T04:36:46.264Z,7.70
2018-03-17T04:37:46.277Z,7.40
2018-03-17T04:38:46.287Z,8.30
2018-03-17T04:39:46.300Z,7.90
2018-03-17T04:40:46.310Z,7.90
2018-03-17T04:41:46.322Z,7.70
2018-03-17T04:42:46.336Z,7.10
2018-03-17T04:43:46.348Z,7.70
2018-03-17T04:44:46.357Z,8.10
2018-03-17T04:45:46.369Z,7.70
2018-03-17T04:46:46.381Z,8.00
2018-03-17T04:47:46.393Z,7.30
2018-03-17T04:48:46.404Z,6.90
2018-03-17T04:49:46.416Z,7.60
2018-03-17T04:50:46.428Z,7.40
2018-03-17T04:51:46.439Z,8.00
2018-03-17T04:52:46.451Z,8.40
2018-03-17T04:53:46.463Z,7.70
2018-03-17T04:54:46.474Z,7.80
2018-03-17T04:55:46.486Z,7.20
2018-03-17T04:56:46.497Z,7.10
2018-03-17T04:57:46.509Z,7.90
2018-03-17T04:58:46.521Z,7.30
2018-03-17T04:59:46.533Z,7.20
2018-03-17T05:00:46.544Z,8.10
2018-03-17T05:01:46.557Z,6.80
2018-03-17T05:02:46.567Z,7.20
2018-03-17T05:03:46.579Z,6.70
2018-03-17T05:04:46.590Z,7.00
2018-03-17T05:05:46.601Z,7.00
2018-03-17T05:06:46.614Z,7.60
2018-03-17T05:07:46.626Z,6.60
2018-03-17T05:08:46.636Z,7.20
2018-03-17T05:09:46.648Z,7.60
2018-03-17T05:10:46.660Z,7.60
2018-03-17T05:11:46.671Z,7.40
2018-03-17T05:12:46.683Z,7.30
2018-03-17T05:13:46.695Z,8.00
2018-03-17T05:14:46.707Z,8.20
2018-03-17T05:15:46.718Z,7.30
2018-03-17T05:16:46.730Z,7.70
2018-03-17T05:17:46.748Z,8.00
2018-03-17T05:18:46.753Z,8.10
2018-03-17T05:19:46.766Z,8.00
2018-03-17T05:20:46.776Z,7.80
2018-03-17T05:21:46.787Z,7.60
2018-03-17T05:22:46.799Z,7.20
2018-03-17T05:23:46.811Z,7.70
2018-03-17T05:24:46.822Z,7.60
2018-03-17T05:25:46.835Z,7.30
2018-03-17T05:26:46.845Z,7.00
2018-03-17T05:27:46.857Z,7.90
2018-03-17T05:28:46.868Z,8.00
2018-03-17T05:29:46.880Z,7.70
2018-03-17T05:30:46.892Z,8.10
2018-03-17T05:31:46.904Z,7.70
2018-03-17T05:32:46.914Z,7.80
2018-03-17T05:33:46.925Z,6.90
2018-03-17T05:34:46.937Z,7.30
2018-03-17T05:35:46.955Z,7.50
2018-03-17T05:36:46.961Z,7.00
2018-03-17T05:37:46.971Z,7.70
2018-03-17T05:38:46.982Z,8.10
2018-03-17T05:39:46.996Z,7.70
2018-03-17T05:40:47.006Z,7.60
2018-03-17T05:41:47.017Z,7.50
2018-03-17T05:42:47.029Z,7.60
2018-03-17T05:43:47.041Z,7.80
2018-03-17T05:44:47.052Z,6.80
2018-03-17T05:45:47.063Z,7.50
2018-03-17T05:46:47.075Z,7.40
2018-03-17T05:47:47.086Z,7.60
2018-03-17T05:48:47.097Z,7.50
2018-03-17T05:49:47.108Z,7.90
2018-03-17T05:50:47.122Z,7.80
2018-03-17T05:51:47.132Z,8.00
2018-03-17T05:52:47.149Z,7.60
2018-03-17T05:53:47.154Z,8.60
2018-03-17T05:54:47.167Z,7.80
2018-03-17T05:55:47.179Z,7.90
2018-03-17T05:56:47.194Z,7.80
2018-03-17T05:57:47.200Z,7.70
2018-03-17T05:58:47.213Z,7.40
2018-03-17T05:59:47.223Z,8.20
2018-03-17T06:00:47.234Z,8.70
2018-03-17T06:01:47.246Z,8.10
2018-03-17T06:02:47.257Z,8.10
2018-03-17T06:03:47.269Z,7.50
2018-03-17T06:04:47.280Z,7.80
2018-03-17T06:05:47.292Z,7.70
2018-03-17T06:06:47.303Z,7.80
2018-03-17T06:07:47.315Z,7.90
2018-03-17T06:08:47.326Z,9.20
2018-03-17T06:09:47.337Z,7.50
2018-03-17T06:10:47.348Z,7.70
2018-03-17T06:11:47.360Z,8.50
2018-03-17T06:12:47.371Z,7.60
2018-03-17T06:13:47.381Z,7.40
2018-03-17T06:14:47.394Z,7.40
2018-03-17T06:15:47.405Z,7.70
2018-03-17T06:16:47.416Z,7.70
2018-03-17T06:17:47.428Z,7.50
2018-03-17T06:18:47.440Z,8.00
2018-03-17T06:19:47.451Z,8.00
2018-03-17T06:20:47.462Z,8.20
2018-03-17T06:21:47.473Z,8.00
2018-03-17T06:22:47.485Z,8.40
2018-03-17T06:23:47.498Z,8.60
2018-03-17T06:24:47.509Z,8.10
2018-03-17T06:25:47.518Z,8.50
2018-03-17T06:26:47.530Z,7.60
2018-03-17T06:27:47.541Z,8.40
2018-03-17T06:28:47.557Z,8.40
2018-03-17T06:29:47.565Z,8.20
2018-03-17T06:30:47.607Z,8.60
2018-03-17T06:31:47.591Z,8.00
2018-03-17T06:32:47.598Z,7.90
2018-03-17T06:33:47.612Z,8.20
2018-03-17T06:34:47.622Z,8.10
2018-03-17T06:35:47.633Z,8.40
2018-03-17T06:36:47.643Z,7.10
2018-03-17T06:37:47.655Z,8.00
2018-03-17T06:38:47.666Z,8.40
2018-03-17T06:39:47.678Z,7.90
2018-03-17T06:40:47.689Z,8.30
2018-03-17T06:41:47.700Z,8.90
2018-03-17T06:42:47.713Z,8.10
2018-03-17T06:43:47.725Z,9.00
2018-03-17T06:44:47.735Z,7.80
2018-03-17T06:45:47.748Z,8.10
2018-03-17T06:46:47.758Z,8.20
2018-03-17T06:47:47.776Z,9.10
2018-03-17T06:48:47.781Z,8.20
2018-03-17T06:49:47.792Z,7.90
2018-03-17T06:50:47.803Z,8.50
2018-03-17T06:51:47.815Z,8.10
2018-03-17T06:52:47.826Z,8.20
2018-03-17T06:53:47.837Z,8.80
2018-03-17T06:54:47.849Z,8.10
2018-03-17T06:55:47.861Z,8.90
2018-03-17T06:56:47.871Z,7.60
2018-03-17T06:57:47.883Z,8.10
2018-03-17T06:58:47.894Z,8.10
2018-03-17T06:59:47.907Z,8.10
2018-03-17T07:00:47.917Z,8.30
2018-03-17T07:01:47.929Z,7.80
2018-03-17T07:02:47.940Z,8.70
2018-03-17T07:03:47.952Z,7.80
2018-03-17T07:04:47.966Z,8.30
2018-03-17T07:05:47.978Z,7.80
2018-03-17T07:06:47.986Z,9.00
2018-03-17T07:07:47.998Z,8.30
2018-03-17T07:08:48.009Z,8.30
2018-03-17T07:09:48.020Z,7.40
2018-03-17T07:10:48.033Z,9.40
2018-03-17T07:11:48.044Z,8.20
2018-03-17T07:12:48.055Z,7.60
2018-03-17T07:13:48.066Z,8.30
2018-03-17T07:14:48.078Z,8.30
2018-03-17T07:15:48.090Z,7.90
2018-03-17T07:16:48.100Z,7.70
2018-03-17T07:17:48.113Z,7.80
2018-03-17T07:18:48.124Z,8.40
2018-03-17T07:19:48.136Z,8.30
2018-03-17T07:20:48.146Z,8.00
2018-03-17T07:21:48.157Z,8.10
2018-03-17T07:22:48.171Z,7.90
2018-03-17T07:23:48.182Z,7.70
2018-03-17T07:24:48.193Z,8.40
2018-03-17T07:25:48.205Z,8.90
2018-03-17T07:26:48.215Z,8.90
2018-03-17T07:27:48.227Z,9.20
2018-03-17T07:28:48.238Z,7.80
2018-03-17T07:29:48.250Z,8.20
2018-03-17T07:30:48.262Z,8.20
2018-03-17T07:31:48.273Z,7.50
2018-03-17T07:32:48.284Z,7.70
2018-03-17T07:33:48.294Z,7.90
2018-03-17T07:34:48.307Z,8.20
2018-03-17T07:35:48.319Z,8.00
2018-03-17T07:36:48.328Z,8.00
2018-03-17T07:37:48.342Z,7.70
2018-03-17T07:38:48.359Z,8.40
2018-03-17T07:39:48.365Z,8.40
2018-03-17T07:40:48.376Z,8.20
2018-03-17T07:41:48.389Z,8.40
2018-03-17T07:42:48.399Z,8.30
2018-03-17T07:43:48.411Z,8.80
2018-03-17T07:44:48.422Z,7.70
2018-03-17T07:45:48.435Z,8.20
2018-03-17T07:46:48.445Z,8.10
2018-03-17T07:47:48.459Z,8.10
2018-03-17T07:48:48.468Z,8.00
2018-03-17T07:49:48.480Z,7.70
2018-03-17T07:50:48.491Z,7.40
2018-03-17T07:51:48.502Z,8.60
2018-03-17T07:52:48.514Z,7.60
2018-03-17T07:53:48.526Z,7.60
2018-03-17T07:54:48.537Z,7.90
2018-03-17T07:55:48.549Z,7.60
2018-03-17T07:56:48.560Z,7.30
2018-03-17T07:57:48.576Z,7.50
2018-03-17T07:58:48.590Z,8.10
2018-03-17T07:59:48.596Z,8.30
2018-03-17T08:00:48.607Z,8.60
2018-03-17T08:01:48.620Z,8.30
2018-03-17T08:02:48.630Z,7.60
2018-03-17T08:03:48.643Z,7.70
2018-03-17T08:04:48.653Z,7.90
2018-03-17T08:05:48.665Z,7.50
2018-03-17T08:06:48.678Z,7.50
2018-03-17T08:07:48.689Z,6.90
2018-03-17T08:08:48.702Z,7.50
2018-03-17T08:09:48.712Z,8.10
2018-03-17T08:10:48.723Z,7.00
2018-03-17T08:11:48.735Z,7.80
2018-03-17T08:12:48.747Z,7.50
2018-03-17T08:13:48.758Z,7.40
2018-03-17T08:14:48.771Z,8.50
2018-03-17T08:15:48.782Z,8.10
2018-03-17T08:16:48.793Z,8.30
2018-03-17T08:17:48.804Z,8.00
2018-03-17T08:18:48.818Z,8.00
2018-03-17T08:19:48.828Z,7.80
2018-03-17T08:20:48.845Z,8.30
2018-03-17T08:21:48.852Z,7.70
2018-03-17T08:22:48.864Z,7.20
2018-03-17T08:23:48.875Z,7.70
2018-03-17T08:24:48.885Z,7.50
2018-03-17T08:25:48.898Z,7.90
2018-03-17T08:26:48.910Z,8.10
2018-03-17T08:27:48.922Z,8.60
2018-03-17T08:28:48.932Z,8.50
2018-03-17T08:29:48.943Z,7.40
2018-03-17T08:30:48.957Z,7.60
2018-03-17T08:31:48.968Z,8.30
2018-03-17T08:32:48.980Z,7.80
2018-03-17T08:33:48.992Z,7.70
2018-03-17T08:34:49.004Z,6.40
2018-03-17T08:35:49.017Z,7.70
2018-03-17T08:36:49.026Z,8.00
2018-03-17T08:37:49.040Z,7.60
2018-03-17T08:38:49.052Z,7.50
2018-03-17T08:39:49.062Z,7.70
2018-03-17T08:40:49.074Z,7.80
2018-03-17T08:41:49.086Z,6.90
2018-03-17T08:42:49.098Z,6.80
2018-03-17T08:43:49.112Z,7.70
2018-03-17T08:44:49.123Z,7.20
2018-03-17T08:45:49.134Z,7.40
2018-03-17T08:46:49.146Z,7.90
2018-03-17T08:47:49.158Z,8.10
2018-03-17T08:48:49.168Z,7.80
2018-03-17T08:49:49.181Z,7.20
2018-03-17T08:50:49.192Z,7.60
2018-03-17T08:51:49.207Z,7.80
2018-03-17T08:52:49.216Z,7.10
2018-03-17T08:53:49.228Z,7.20
2018-03-17T08:54:49.240Z,7.80
2018-03-17T08:55:49.252Z,7.90
2018-03-17T08:56:49.263Z,7.20
2018-03-17T08:57:49.275Z,7.40
2018-03-17T08:58:49.347Z,7.50
2018-03-17T08:59:49.298Z,7.10
2018-03-17T09:00:49.311Z,7.30
2018-03-17T09:01:49.322Z,7.50
2018-03-17T09:02:49.334Z,7.40
2018-03-17T09:03:49.346Z,7.00
2018-03-17T09:04:49.376Z,7.40
2018-03-17T09:05:49.369Z,7.70
2018-03-17T09:06:49.382Z,6.80
2018-03-17T09:07:49.393Z,6.90
2018-03-17T09:08:49.406Z,6.60
2018-03-17T09:09:49.417Z,6.60
2018-03-17T09:10:49.430Z,7.30
2018-03-17T09:11:49.442Z,7.10
2018-03-17T09:12:49.454Z,6.40
2018-03-17T09:13:49.464Z,6.80
2018-03-17T09:14:49.477Z,7.00
2018-03-17T09:15:49.490Z,7.50
2018-03-17T09:16:49.500Z,6.50
2018-03-17T09:17:49.514Z,7.10
2018-03-17T09:18:49.525Z,7.30
2018-03-17T09:19:49.541Z,7.10
2018-03-17T09:20:49.549Z,7.20
2018-03-17T09:21:49.563Z,6.70
2018-03-17T09:22:49.575Z,7.10
2018-03-17T09:23:49.585Z,7.00
2018-03-17T09:24:49.601Z,7.00
2018-03-17T09:25:49.610Z,6.60
2018-03-17T09:26:49.624Z,7.00
2018-03-17T09:27:49.634Z,6.80
2018-03-17T09:28:49.647Z,6.90
2018-03-17T09:29:49.660Z,6.60
2018-03-17T09:30:49.670Z,7.50
2018-03-17T09:31:49.682Z,6.90
2018-03-17T09:32:49.695Z,6.80
2018-03-17T09:33:49.706Z,6.80
2018-03-17T09:34:49.762Z,6.90
2018-03-17T09:35:49.733Z,7.10
2018-03-17T09:36:49.742Z,6.90
2018-03-17T09:37:49.752Z,7.30
2018-03-17T09:38:49.768Z,6.90
2018-03-17T09:39:49.782Z,6.70
2018-03-17T09:40:49.788Z,6.50
2018-03-17T09:41:49.801Z,6.80
2018-03-17T09:42:49.814Z,6.50
2018-03-17T09:43:49.825Z,6.90
2018-03-17T09:44:49.838Z,7.20
2018-03-17T09:45:49.850Z,6.50
2018-03-17T09:46:49.863Z,6.70
2018-03-17T09:47:49.874Z,7.00
2018-03-17T09:48:49.886Z,7.60
2018-03-17T09:49:49.900Z,6.90
2018-03-17T09:50:49.910Z,5.90
2018-03-17T09:51:49.931Z,6.30
2018-03-17T09:52:49.936Z,6.60
2018-03-17T09:53:49.947Z,6.60
2018-03-17T09:54:49.958Z,6.20
2018-03-17T09:55:49.971Z,7.00
2018-03-17T09:56:49.983Z,7.20
2018-03-17T09:57:49.996Z,6.80
2018-03-17T09:58:50.007Z,7.20
2018-03-17T09:59:50.020Z,6.60
2018-03-17T10:00:50.032Z,6.90
2018-03-17T10:01:50.044Z,6.90
2018-03-17T10:02:50.056Z,7.00
2018-03-17T10:03:50.074Z,7.00
2018-03-17T10:04:50.123Z,7.10
2018-03-17T10:05:50.092Z,7.00
2018-03-17T10:06:50.105Z,6.80
2018-03-17T10:07:50.117Z,7.10
2018-03-17T10:08:50.129Z,8.20
2018-03-17T10:09:50.148Z,7.30
2018-03-17T10:10:50.153Z,7.30
2018-03-17T10:11:50.166Z,7.30
2018-03-17T10:12:50.228Z,7.40
2018-03-17T10:13:50.190Z,7.70
2018-03-17T10:14:50.203Z,7.40
2018-03-17T10:15:50.244Z,7.20
2018-03-17T10:16:50.226Z,7.10
2018-03-17T10:17:50.240Z,6.50
2018-03-17T10:18:50.251Z,7.00
2018-03-17T10:19:50.264Z,7.30
2018-03-17T10:20:50.275Z,7.60
2018-03-17T10:21:50.288Z,7.10
2018-03-17T10:22:50.300Z,7.30
2018-03-17T10:23:50.314Z,8.10
2018-03-17T10:24:50.324Z,7.50
2018-03-17T10:25:50.336Z,7.70
2018-03-17T10:26:50.350Z,7.10
2018-03-17T10:27:50.362Z,7.60
2018-03-17T10:28:50.373Z,7.40
2018-03-17T10:29:50.385Z,6.80
2018-03-17T10:30:50.398Z,7.30
2018-03-17T10:31:50.409Z,6.90
2018-03-17T10:32:50.422Z,7.70
2018-03-17T10:33:50.437Z,7.30
2018-03-17T10:34:50.446Z,7.70
2018-03-17T10:35:50.458Z,8.60
2018-03-17T10:36:50.469Z,7.60
2018-03-17T10:37:50.482Z,7.40
2018-03-17T10:38:50.501Z,6.90
2018-03-17T10:39:50.542Z,6.80
2018-03-17T10:40:50.518Z,7.70
2018-03-17T10:41:50.530Z,7.10
2018-03-17T10:42:50.544Z,7.60
2018-03-17T10:43:50.555Z,7.10
2018-03-17T10:44:50.566Z,7.10
2018-03-17T10:45:50.578Z,7.60
2018-03-17T10:46:50.591Z,7.40
2018-03-17T10:47:50.660Z,6.80
2018-03-17T10:48:50.616Z,7.00
2018-03-17T10:49:50.627Z,6.90
2018-03-17T10:50:50.639Z,7.70
2018-03-17T10:51:50.655Z,7.20
2018-03-17T10:52:50.663Z,7.10
2018-03-17T10:53:50.676Z,7.30
2018-03-17T10:54:50.689Z,8.00
2018-03-17T10:55:50.705Z,7.60
2018-03-17T10:56:50.717Z,8.40
2018-03-17T10:57:50.728Z,7.30
2018-03-17T10:58:50.741Z,8.60
2018-03-17T10:59:50.758Z,8.50
2018-03-17T11:00:50.788Z,8.10
2018-03-17T11:01:50.812Z,7.50
2018-03-17T11:02:50.790Z,7.50
2018-03-17T11:03:50.800Z,8.80
2018-03-17T11:04:50.813Z,7.70
2018-03-17T11:05:50.877Z,7.80
2018-03-17T11:06:50.835Z,7.20
2018-03-17T11:07:50.859Z,7.00
2018-03-17T11:08:50.863Z,7.30
2018-03-17T11:09:50.879Z,7.90
2018-03-17T11:10:50.886Z,7.20
2018-03-17T11:11:50.897Z,6.90
2018-03-17T11:12:50.919Z,6.70
2018-03-17T11:13:50.932Z,7.30
2018-03-17T11:14:50.933Z,7.20
2018-03-17T11:15:50.946Z,7.10
2018-03-17T11:16:50.975Z,7.00
2018-03-17T11:17:50.970Z,6.70
2018-03-17T11:18:50.990Z,6.90
2018-03-17T11:19:50.996Z,7.00
2018-03-17T11:20:51.009Z,7.30
2018-03-17T11:21:51.018Z,7.70
2018-03-17T11:22:51.174Z,7.10
2018-03-17T11:23:51.044Z,7.10
2018-03-17T11:24:51.062Z,7.00
2018-03-17T11:25:51.071Z,6.70
2018-03-17T11:26:51.085Z,7.60
2018-03-17T11:27:51.168Z,7.20
2018-03-17T11:28:51.106Z,7.30
2018-03-17T11:29:51.118Z,6.90
2018-03-17T11:30:51.203Z,7.40
2018-03-17T11:31:51.166Z,7.50
2018-03-17T11:32:51.153Z,7.40
2018-03-17T11:33:51.217Z,7.30
2018-03-17T11:34:51.185Z,7.20
2018-03-17T11:35:51.206Z,7.30
2018-03-17T11:36:51.214Z,7.10
2018-03-17T11:37:51.221Z,7.30
2018-03-17T11:38:51.242Z,6.90
2018-03-17T11:39:51.251Z,7.10
2018-03-17T11:40:51.254Z,6.60
2018-03-17T11:41:51.265Z,7.40
2018-03-17T11:42:51.288Z,6.80
2018-03-17T11:43:51.294Z,7.20
2018-03-17T11:44:51.375Z,7.70
2018-03-17T11:45:51.315Z,6.60
2018-03-17T11:46:51.329Z,7.80
2018-03-17T11:47:51.341Z,7.00
2018-03-17T11:48:51.381Z,7.40
2018-03-17T11:49:51.387Z,6.50
2018-03-17T11:50:51.378Z,7.50
2018-03-17T11:51:51.444Z,6.70
2018-03-17T11:52:51.404Z,6.60
2018-03-17T11:53:51.587Z,6.40
2018-03-17T11:54:51.438Z,7.30
2018-03-17T11:55:51.443Z,7.20
2018-03-17T11:56:51.455Z,7.20
2018-03-17T11:57:51.515Z,7.10
2018-03-17T11:58:51.532Z,7.10
2018-03-17T11:59:51.498Z,7.00
2018-03-17T12:00:51.504Z,6.70
2018-03-17T12:01:51.533Z,7.00
2018-03-17T12:02:51.576Z,6.80
2018-03-17T12:03:51.547Z,6.50
2018-03-17T12:04:51.555Z,6.70
2018-03-17T12:05:51.569Z,7.10
2018-03-17T12:06:51.584Z,6.90
2018-03-17T12:07:51.597Z,7.50
2018-03-17T12:08:51.632Z,6.80
2018-03-17T12:09:51.619Z,7.60
2018-03-17T12:10:51.632Z,6.80
2018-03-17T12:11:51.645Z,7.60
2018-03-17T12:12:51.667Z,6.80
2018-03-17T12:13:51.674Z,6.70
2018-03-17T12:14:51.685Z,6.70
2018-03-17T12:15:51.696Z,7.10
2018-03-17T12:16:51.717Z,6.80
2018-03-17T12:17:51.720Z,6.90
2018-03-17T12:18:51.740Z,6.40
2018-03-17T12:19:51.746Z,7.40
2018-03-17T12:20:51.757Z,6.70
2018-03-17T12:21:51.774Z,7.00
2018-03-17T12:22:51.783Z,6.70
2018-03-17T12:23:51.796Z,6.10
2018-03-17T12:24:51.808Z,6.80
2018-03-17T12:25:51.821Z,6.70
2018-03-17T12:26:51.833Z,6.20
2018-03-17T12:27:51.851Z,6.90
2018-03-17T12:28:51.859Z,6.30
2018-03-17T12:29:51.873Z,7.40
2018-03-17T12:30:51.884Z,6.90
2018-03-17T12:31:51.898Z,6.80
2018-03-17T12:32:51.910Z,6.50
2018-03-17T12:33:51.923Z,7.00
2018-03-17T12:34:51.937Z,6.10
2018-03-17T12:35:51.954Z,6.90
2018-03-17T12:36:51.963Z,6.50
2018-03-17T12:37:51.974Z,7.00
2018-03-17T12:38:51.987Z,6.10
2018-03-17T12:39:52.000Z,7.00
2018-03-17T12:40:52.013Z,6.10
2018-03-17T12:41:52.024Z,7.00
2018-03-17T12:42:52.037Z,6.90
2018-03-17T12:43:52.051Z,7.10
2018-03-17T12:44:52.063Z,6.40
2018-03-17T12:45:52.082Z,6.10
2018-03-17T12:46:52.088Z,7.10
2018-03-17T12:47:52.103Z,6.30
2018-03-17T12:48:52.114Z,6.50
2018-03-17T12:49:52.128Z,6.00
2018-03-17T12:50:52.140Z,5.90
2018-03-17T12:51:52.157Z,6.10
2018-03-17T12:52:52.172Z,5.90
2018-03-17T12:53:52.180Z,6.10
2018-03-17T12:54:52.195Z,6.50
2018-03-17T12:55:52.206Z,6.90
2018-03-17T12:56:52.219Z,6.60
2018-03-17T12:57:52.232Z,6.30
2018-03-17T12:58:52.245Z,6.00
2018-03-17T12:59:52.258Z,6.40
2018-03-17T13:00:52.272Z,6.00
2018-03-17T13:01:52.284Z,6.30
2018-03-17T13:02:52.297Z,6.40
2018-03-17T13:03:52.311Z,6.60
2018-03-17T13:04:52.323Z,6.30
2018-03-17T13:05:52.336Z,6.20
2018-03-17T13:06:52.349Z,6.30
2018-03-17T13:07:52.362Z,6.20
2018-03-17T13:08:52.374Z,6.70
2018-03-17T13:09:52.388Z,7.00
2018-03-17T13:10:52.401Z,6.30
2018-03-17T13:11:52.413Z,5.60
2018-03-17T13:12:52.427Z,7.00
2018-03-17T13:13:52.440Z,5.90
2018-03-17T13:14:52.453Z,6.20
2018-03-17T13:15:52.466Z,6.10
2018-03-17T13:16:52.476Z,6.10